Time;durP1;ratioP1;P1;durP2;ratioP2;P2;SDS_P1;SDS_P2;PMS_P1;PMS_P2;Temp;Humidity;BMP_temperature;BMP_pressure;BME280_temperature;BME280_humidity;BME280_pressure;Samples;Min_cycle;Max_cycle;Signal;HPM_P1;HPM_P2
2023/09/13 00:02:12;;;;;;;8.98;3.28;;;18.40;99.90;;;;;;4994750;28;20038;-72
2023/09/13 00:04:37;;;;;;;14.90;4.78;;;18.40;99.90;;;;;;4995948;28;20034;-71
2023/09/13 00:07:03;;;;;;;8.75;2.92;;;18.40;99.90;;;;;;4995652;28;20042;-72
2023/09/13 00:09:29;;;;;;;9.00;2.78;;;18.40;99.90;;;;;;4995794;28;20054;-72
2023/09/13 00:11:54;;;;;;;10.88;2.60;;;18.40;99.90;;;;;;4995977;28;20117;-72
2023/09/13 00:14:20;;;;;;;6.30;2.10;;;18.30;99.90;;;;;;4995893;28;20030;-73
2023/09/13 00:16:46;;;;;;;6.47;2.70;;;18.30;99.90;;;;;;4995725;28;20468;-72
2023/09/13 00:19:11;;;;;;;7.25;2.58;;;18.30;99.90;;;;;;4994183;28;20046;-72
2023/09/13 00:21:40;;;;;;;6.00;1.65;;;18.10;99.90;;;;;;4995534;28;20046;-72
2023/09/13 00:24:09;;;;;;;9.48;2.25;;;18.10;99.90;;;;;;4995848;28;20042;-72
2023/09/13 00:26:35;;;;;;;9.73;2.38;;;18.10;99.90;;;;;;4995561;28;20038;-73
2023/09/13 00:29:01;;;;;;;6.25;2.50;;;18.00;99.90;;;;;;4995381;28;20429;-72
2023/09/13 00:31:26;;;;;;;7.68;2.50;;;17.90;99.90;;;;;;4995488;28;20042;-72
2023/09/13 00:33:52;;;;;;;11.45;4.32;;;17.90;99.90;;;;;;4994122;28;20046;-71
2023/09/13 00:36:17;;;;;;;11.43;3.65;;;17.80;99.90;;;;;;4995582;28;20084;-71
2023/09/13 00:38:43;;;;;;;8.30;4.15;;;17.80;99.90;;;;;;4995200;28;20109;-71
2023/09/13 00:41:08;;;;;;;12.73;4.97;;;17.80;99.90;;;;;;4995256;28;20154;-71
2023/09/13 00:43:34;;;;;;;11.60;3.60;;;17.80;99.90;;;;;;4993985;28;20057;-71
2023/09/13 00:46:00;;;;;;;9.88;4.05;;;17.80;99.90;;;;;;4995088;28;20062;-71
2023/09/13 00:48:26;;;;;;;8.30;3.05;;;17.80;99.90;;;;;;4994580;28;20085;-71
2023/09/13 00:50:52;;;;;;;9.95;2.90;;;17.70;99.90;;;;;;5010365;28;20049;-71
2023/09/13 00:53:19;;;;;;;6.93;2.05;;;17.80;99.90;;;;;;4995246;28;20509;-71
2023/09/13 00:55:50;;;;;;;6.38;1.90;;;17.70;99.90;;;;;;4993564;28;20097;-72
2023/09/13 00:58:15;;;;;;;5.38;1.55;;;17.70;99.90;;;;;;4994508;28;20169;-71
2023/09/13 01:00:41;;;;;;;5.78;2.00;;;17.70;99.90;;;;;;4994964;28;20133;-71
2023/09/13 01:03:07;;;;;;;9.68;2.92;;;17.70;99.90;;;;;;4994785;28;20481;-71
2023/09/13 01:05:35;;;;;;;9.80;4.18;;;17.70;99.90;;;;;;4993481;28;20042;-72
2023/09/13 01:08:01;;;;;;;13.02;4.97;;;17.70;99.90;;;;;;4993487;28;20042;-72
2023/09/13 01:10:26;;;;;;;11.65;3.80;;;17.70;99.90;;;;;;4992566;28;20097;-72
2023/09/13 01:12:52;;;;;;;10.02;3.70;;;17.70;99.90;;;;;;4994759;28;20082;-71
2023/09/13 01:15:17;;;;;;;10.85;4.45;;;17.70;99.90;;;;;;4994616;28;20042;-71
2023/09/13 01:17:54;;;;;;;11.02;4.10;;;17.80;99.90;;;;;;4994483;28;20080;-71
2023/09/13 01:20:51;;;;;;;12.82;3.90;;;17.70;99.90;;;;;;4994080;28;20401;-71
2023/09/13 01:23:37;;;;;;;11.15;4.47;;;17.70;99.90;;;;;;4994530;28;20511;-71
2023/09/13 01:26:22;;;;;;;12.15;3.40;;;17.70;99.90;;;;;;5022378;22;20081;-69
2023/09/13 01:28:51;;;;;;;10.15;4.50;;;17.70;99.90;;;;;;5053005;28;20041;-66
2023/09/13 01:31:17;;;;;;;11.30;5.15;;;17.60;99.90;;;;;;5053186;28;20037;-66
2023/09/13 01:33:46;;;;;;;9.38;3.83;;;17.60;99.90;;;;;;5053645;28;20370;-66
2023/09/13 01:36:12;;;;;;;16.27;5.35;;;17.60;99.90;;;;;;5053476;28;20055;-66
2023/09/13 01:38:38;;;;;;;15.93;4.05;;;17.60;99.90;;;;;;5053066;28;20133;-66
2023/09/13 01:41:10;;;;;;;8.30;2.60;;;17.50;99.90;;;;;;5053581;28;20033;-66
2023/09/13 01:43:37;;;;;;;8.73;2.53;;;17.50;99.90;;;;;;5053507;28;20037;-66
2023/09/13 01:46:03;;;;;;;7.65;1.85;;;17.40;99.90;;;;;;5053359;28;20272;-66
2023/09/13 01:48:29;;;;;;;4.93;1.85;;;17.40;99.90;;;;;;5053051;28;20044;-66
2023/09/13 01:50:55;;;;;;;5.78;1.73;;;17.40;99.90;;;;;;5053618;28;20076;-66
2023/09/13 01:53:21;;;;;;;7.30;2.13;;;17.40;99.90;;;;;;5051888;28;20040;-66
2023/09/13 01:55:47;;;;;;;4.32;1.77;;;17.40;99.90;;;;;;5052977;28;20122;-66
2023/09/13 01:58:12;;;;;;;10.63;2.42;;;17.30;99.90;;;;;;5052065;28;20056;-66
2023/09/13 02:00:39;;;;;;;4.90;2.13;;;17.30;99.90;;;;;;5035008;28;20045;-68
2023/09/13 02:03:05;;;;;;;7.82;2.42;;;17.30;99.90;;;;;;5052929;28;20538;-68
2023/09/13 02:05:31;;;;;;;11.55;3.65;;;17.30;99.90;;;;;;5052761;28;20072;-66
2023/09/13 02:07:56;;;;;;;10.95;3.25;;;17.30;99.90;;;;;;5052796;28;20033;-66
2023/09/13 02:10:22;;;;;;;13.77;4.50;;;17.30;99.90;;;;;;5052607;28;20466;-68
2023/09/13 02:12:48;;;;;;;11.23;3.67;;;17.30;99.90;;;;;;5052848;28;20048;-66
2023/09/13 02:15:13;;;;;;;11.00;3.70;;;17.30;99.90;;;;;;5052855;28;20071;-66
2023/09/13 02:17:39;;;;;;;10.90;4.32;;;17.30;99.90;;;;;;5052638;28;20045;-66
2023/09/13 02:20:05;;;;;;;13.85;5.07;;;17.40;99.90;;;;;;5052012;28;20175;-67
2023/09/13 02:22:31;;;;;;;12.52;3.55;;;17.30;99.90;;;;;;5051018;28;20040;-67
2023/09/13 02:24:56;;;;;;;10.45;3.17;;;17.30;99.90;;;;;;5051593;28;20029;-67
2023/09/13 02:27:22;;;;;;;6.82;2.22;;;17.30;99.90;;;;;;5051507;28;20385;-67
2023/09/13 02:29:47;;;;;;;7.30;2.55;;;17.20;99.90;;;;;;5051649;28;20037;-67
2023/09/13 02:32:13;;;;;;;6.82;2.20;;;17.20;99.90;;;;;;5053177;28;20047;-66
2023/09/13 02:34:38;;;;;;;10.90;2.65;;;17.10;99.90;;;;;;5052540;28;20037;-67
2023/09/13 02:37:04;;;;;;;9.68;2.22;;;17.20;99.90;;;;;;5052797;28;20461;-67
2023/09/13 02:39:41;;;;;;;10.82;2.42;;;17.20;99.90;;;;;;5052478;28;20095;-67
2023/09/13 02:42:07;;;;;;;9.85;2.60;;;17.20;99.90;;;;;;5052509;28;20095;-67
2023/09/13 02:44:33;;;;;;;13.18;2.80;;;17.20;99.90;;;;;;5052457;28;20033;-67
2023/09/13 02:47:00;;;;;;;8.75;2.15;;;17.20;99.90;;;;;;5052192;28;20504;-67
2023/09/13 02:49:26;;;;;;;6.88;2.33;;;17.30;99.90;;;;;;5050676;28;20048;-67
2023/09/13 02:51:52;;;;;;;11.18;2.45;;;17.20;99.90;;;;;;5052337;28;20432;-67
2023/09/13 02:54:18;;;;;;;7.50;2.63;;;17.20;99.90;;;;;;5052335;28;20091;-67
2023/09/13 02:56:45;;;;;;;5.40;1.90;;;17.20;99.90;;;;;;5052143;28;20076;-67
2023/09/13 02:59:11;;;;;;;3.58;1.83;;;17.20;99.90;;;;;;5051517;28;20050;-67
2023/09/13 03:01:36;;;;;;;8.05;2.15;;;17.20;99.90;;;;;;5051623;28;20412;-67
2023/09/13 03:04:02;;;;;;;7.18;1.60;;;17.20;99.90;;;;;;5051654;28;20079;-67
2023/09/13 03:06:29;;;;;;;5.07;1.77;;;17.20;99.90;;;;;;5051570;28;20041;-66
2023/09/13 03:08:55;;;;;;;7.88;2.95;;;17.20;99.90;;;;;;5051622;28;20040;-67
2023/09/13 03:11:21;;;;;;;7.28;1.60;;;17.20;99.90;;;;;;5051867;28;20037;-67
2023/09/13 03:13:46;;;;;;;8.27;2.25;;;17.20;99.90;;;;;;5051734;28;20044;-66
2023/09/13 03:16:14;;;;;;;7.80;2.90;;;17.20;99.90;;;;;;5051753;28;20051;-66
2023/09/13 03:18:40;;;;;;;7.32;2.80;;;17.20;99.90;;;;;;5051245;28;20047;-67
2023/09/13 03:21:08;;;;;;;15.80;3.85;;;17.20;99.90;;;;;;5051859;28;20548;-66
2023/09/13 03:23:36;;;;;;;8.43;3.58;;;17.20;99.90;;;;;;5051599;28;20083;-66
2023/09/13 03:26:01;;;;;;;9.35;3.33;;;17.20;99.90;;;;;;5051400;28;20504;-66
2023/09/13 03:28:27;;;;;;;9.90;3.00;;;17.20;99.90;;;;;;5051318;28;20037;-67
2023/09/13 03:30:52;;;;;;;7.50;2.85;;;17.20;99.90;;;;;;5051536;28;20045;-67
2023/09/13 03:33:18;;;;;;;9.75;2.85;;;17.20;99.90;;;;;;5051268;28;20041;-66
2023/09/13 03:35:43;;;;;;;9.48;3.00;;;17.20;99.90;;;;;;5051512;28;20444;-67
2023/09/13 03:38:09;;;;;;;8.48;2.60;;;17.20;99.90;;;;;;5051415;28;20412;-67
2023/09/13 03:40:35;;;;;;;9.35;2.40;;;17.20;99.90;;;;;;5051155;28;20045;-67
2023/09/13 03:43:00;;;;;;;6.72;2.60;;;17.20;99.90;;;;;;5051503;28;20124;-67
2023/09/13 03:45:26;;;;;;;9.45;2.60;;;17.20;99.90;;;;;;5051456;28;20037;-67
2023/09/13 03:47:51;;;;;;;9.32;3.30;;;17.20;99.90;;;;;;5051045;28;20051;-67
2023/09/13 03:50:17;;;;;;;5.70;2.28;;;17.20;99.90;;;;;;5051002;28;20124;-67
2023/09/13 03:52:42;;;;;;;7.47;2.00;;;17.20;99.90;;;;;;5051543;28;20067;-67
2023/09/13 03:55:08;;;;;;;6.05;2.17;;;17.10;99.90;;;;;;5051472;28;20036;-67
2023/09/13 03:57:34;;;;;;;6.60;2.00;;;17.20;99.90;;;;;;5049841;28;20045;-67
2023/09/13 03:59:59;;;;;;;8.50;2.80;;;17.20;99.90;;;;;;5050953;28;20073;-67
2023/09/13 04:02:25;;;;;;;6.18;2.13;;;17.10;99.90;;;;;;5051240;28;20036;-66
2023/09/13 04:04:50;;;;;;;6.47;2.28;;;17.10;99.90;;;;;;5051475;28;20040;-67
2023/09/13 04:07:16;;;;;;;4.65;1.60;;;17.10;99.90;;;;;;5051136;28;20496;-67
2023/09/13 04:09:42;;;;;;;6.13;1.60;;;17.00;99.90;;;;;;5050906;28;20033;-67
2023/09/13 04:12:07;;;;;;;10.95;2.20;;;17.10;99.90;;;;;;5051252;28;20041;-66
2023/09/13 04:14:33;;;;;;;12.20;2.88;;;17.00;99.90;;;;;;5051226;28;20083;-67
2023/09/13 04:16:59;;;;;;;13.75;3.05;;;17.00;99.90;;;;;;5051018;28;20064;-66
2023/09/13 04:19:24;;;;;;;13.18;2.83;;;17.00;99.90;;;;;;5051018;28;20036;-67
2023/09/13 04:21:50;;;;;;;9.55;2.28;;;16.90;99.90;;;;;;5051126;28;20049;-67
2023/09/13 04:24:15;;;;;;;8.18;2.08;;;16.90;99.90;;;;;;5051192;28;20064;-67
2023/09/13 04:26:41;;;;;;;6.32;1.95;;;16.80;99.90;;;;;;5050913;28;20045;-67
2023/09/13 04:29:07;;;;;;;8.93;1.92;;;16.80;99.90;;;;;;5050717;28;20040;-67
2023/09/13 04:31:32;;;;;;;7.18;2.42;;;16.70;99.90;;;;;;5050907;28;20033;-67
2023/09/13 04:33:58;;;;;;;8.20;2.90;;;16.60;99.90;;;;;;5051199;28;20396;-67
2023/09/13 04:36:23;;;;;;;15.25;3.90;;;16.50;99.90;;;;;;5051122;28;20043;-67
2023/09/13 04:38:49;;;;;;;9.85;3.10;;;16.40;99.90;;;;;;5050776;28;20040;-66
2023/09/13 04:41:16;;;;;;;11.43;4.15;;;16.30;99.90;;;;;;5050991;28;20044;-66
2023/09/13 04:43:42;;;;;;;11.05;4.60;;;16.20;99.90;;;;;;5049711;28;20045;-67
2023/09/13 04:46:08;;;;;;;15.65;4.50;;;16.10;99.90;;;;;;5051872;28;20036;-67
2023/09/13 04:48:34;;;;;;;13.23;3.83;;;16.10;99.90;;;;;;5053302;28;20163;-67
2023/09/13 04:51:00;;;;;;;9.77;3.33;;;16.00;99.90;;;;;;5054523;28;20041;-67
2023/09/13 04:53:26;;;;;;;12.50;2.65;;;16.00;99.90;;;;;;5054316;28;20037;-67
2023/09/13 04:55:52;;;;;;;9.25;2.30;;;15.90;99.90;;;;;;5053663;28;20055;-67
2023/09/13 04:58:17;;;;;;;6.38;2.20;;;15.90;99.90;;;;;;5047716;28;20111;-67
2023/09/13 05:00:43;;;;;;;7.25;2.53;;;15.80;99.90;;;;;;5051470;28;20046;-67
2023/09/13 05:03:09;;;;;;;5.88;1.67;;;15.70;99.90;;;;;;5053955;28;20037;-67
2023/09/13 05:05:34;;;;;;;6.75;1.92;;;15.60;99.90;;;;;;5054240;28;20041;-67
2023/09/13 05:08:00;;;;;;;10.93;1.60;;;15.60;99.90;;;;;;5054010;28;20043;-67
2023/09/13 05:10:29;;;;;;;8.73;1.88;;;15.60;99.90;;;;;;5035993;28;20049;-67
2023/09/13 05:12:54;;;;;;;8.73;1.77;;;15.50;99.90;;;;;;5053923;28;20404;-67
2023/09/13 05:15:30;;;;;;;7.00;1.95;;;15.50;99.90;;;;;;5053917;28;20045;-67
2023/09/13 05:17:56;;;;;;;6.75;1.73;;;15.50;99.90;;;;;;5053624;28;20086;-67
2023/09/13 05:20:21;;;;;;;5.18;1.67;;;15.50;99.90;;;;;;5052157;28;20060;-67
2023/09/13 05:22:47;;;;;;;9.18;1.98;;;15.40;99.90;;;;;;5053969;28;20048;-67
2023/09/13 05:25:13;;;;;;;12.18;2.20;;;15.40;99.90;;;;;;5053686;28;20048;-67
2023/09/13 05:27:38;;;;;;;5.80;2.15;;;15.30;99.90;;;;;;5053308;28;20048;-67
2023/09/13 05:30:04;;;;;;;8.50;1.98;;;15.40;99.90;;;;;;5053634;28;20033;-67
2023/09/13 05:32:30;;;;;;;8.05;2.53;;;15.30;99.90;;;;;;5053602;28;20048;-67
2023/09/13 05:34:55;;;;;;;7.20;2.80;;;15.20;99.90;;;;;;5053571;28;20041;-67
2023/09/13 05:37:21;;;;;;;9.57;2.33;;;15.20;99.90;;;;;;5052042;28;20058;-68
2023/09/13 05:39:46;;;;;;;6.75;2.40;;;15.10;99.90;;;;;;5053202;28;20036;-67
2023/09/13 05:42:12;;;;;;;6.88;2.08;;;15.10;99.90;;;;;;5053373;28;20408;-68
2023/09/13 05:44:37;;;;;;;6.88;2.47;;;15.00;99.90;;;;;;5053634;28;20044;-68
2023/09/13 05:47:03;;;;;;;5.20;1.73;;;14.90;99.90;;;;;;5053472;28;20044;-69
2023/09/13 05:49:29;;;;;;;8.50;1.83;;;15.00;99.90;;;;;;5052760;28;20108;-68
2023/09/13 05:51:55;;;;;;;8.52;2.22;;;14.90;99.90;;;;;;5041789;28;20037;-68
2023/09/13 05:54:20;;;;;;;9.90;2.28;;;14.90;99.90;;;;;;5043572;28;20033;-68
2023/09/13 05:56:46;;;;;;;7.53;1.80;;;14.80;99.90;;;;;;5042357;28;20042;-68
2023/09/13 05:59:11;;;;;;;7.95;1.95;;;14.80;99.90;;;;;;5038681;28;20484;-68
2023/09/13 06:01:37;;;;;;;10.20;2.47;;;14.80;99.90;;;;;;5033248;28;20045;-68
2023/09/13 06:04:03;;;;;;;6.68;2.05;;;14.90;99.90;;;;;;5033247;28;20042;-68
2023/09/13 06:06:29;;;;;;;8.80;2.72;;;14.90;99.90;;;;;;5031377;28;20457;-68
2023/09/13 06:08:55;;;;;;;9.65;2.10;;;15.00;99.90;;;;;;5032709;28;20033;-68
2023/09/13 06:11:21;;;;;;;10.38;2.25;;;14.90;99.90;;;;;;5032873;28;20563;-68
2023/09/13 06:13:46;;;;;;;9.90;3.13;;;14.90;99.90;;;;;;5033142;28;20042;-68
2023/09/13 06:16:12;;;;;;;8.98;2.25;;;15.00;99.90;;;;;;5032718;28;20033;-69
2023/09/13 06:18:37;;;;;;;8.18;2.20;;;14.90;99.90;;;;;;5030905;28;20532;-68
2023/09/13 06:21:03;;;;;;;10.80;2.65;;;15.00;99.90;;;;;;5032701;28;20049;-68
2023/09/13 06:23:37;;;;;;;8.27;2.42;;;15.00;99.90;;;;;;5031622;28;20037;-68
2023/09/13 06:26:03;;;;;;;15.02;3.58;;;14.90;99.90;;;;;;5032253;28;20457;-68
2023/09/13 06:28:30;;;;;;;6.93;3.08;;;14.90;99.90;;;;;;5032397;28;20134;-68
2023/09/13 06:30:57;;;;;;;10.30;2.83;;;14.80;99.90;;;;;;5032804;28;20045;-68
2023/09/13 06:33:27;;;;;;;8.13;2.20;;;14.70;99.90;;;;;;5032540;28;20718;-68
2023/09/13 06:35:55;;;;;;;10.80;2.42;;;14.70;99.90;;;;;;5032446;28;20045;-68
2023/09/13 06:38:20;;;;;;;11.07;2.95;;;14.60;99.90;;;;;;5031902;28;20056;-69
2023/09/13 06:40:47;;;;;;;10.52;3.08;;;14.70;99.90;;;;;;5032502;28;20041;-69
2023/09/13 06:43:14;;;;;;;17.42;3.67;;;14.70;99.90;;;;;;5031386;28;20517;-68
2023/09/13 06:45:40;;;;;;;9.80;3.05;;;14.70;99.90;;;;;;5032431;28;20041;-68
2023/09/13 06:48:06;;;;;;;15.50;3.00;;;14.70;99.90;;;;;;5032196;28;20037;-68
2023/09/13 06:50:32;;;;;;;10.05;3.53;;;14.70;99.90;;;;;;5031932;28;20192;-68
2023/09/13 06:52:57;;;;;;;14.38;2.78;;;14.70;99.90;;;;;;5032134;28;20044;-68
2023/09/13 06:55:23;;;;;;;12.00;3.10;;;14.70;99.90;;;;;;5032087;28;20052;-68
2023/09/13 06:57:51;;;;;;;12.93;3.08;;;14.80;99.90;;;;;;5032243;28;20088;-68
2023/09/13 07:00:17;;;;;;;13.13;3.78;;;14.80;99.90;;;;;;5031102;28;20045;-68
2023/09/13 07:02:43;;;;;;;11.07;3.10;;;14.70;99.90;;;;;;5031945;28;20121;-69
2023/09/13 07:05:08;;;;;;;12.90;3.15;;;14.70;99.90;;;;;;5032024;28;20117;-68
2023/09/13 07:07:34;;;;;;;11.80;3.13;;;14.80;99.90;;;;;;5031614;28;20045;-68
2023/09/13 07:09:59;;;;;;;13.95;4.75;;;14.80;99.90;;;;;;5031019;28;20041;-68
2023/09/13 07:12:25;;;;;;;11.32;2.83;;;14.90;99.90;;;;;;5032246;28;20507;-68
2023/09/13 07:14:51;;;;;;;11.48;3.92;;;14.80;99.90;;;;;;5031963;28;20579;-69
2023/09/13 07:17:18;;;;;;;8.35;2.42;;;14.90;99.90;;;;;;5031952;28;20627;-68
2023/09/13 07:19:44;;;;;;;12.15;2.92;;;14.90;99.90;;;;;;5031321;28;20469;-68
2023/09/13 07:22:10;;;;;;;13.25;3.08;;;14.90;99.90;;;;;;5031770;28;20037;-68
2023/09/13 07:24:36;;;;;;;11.95;4.10;;;15.00;99.90;;;;;;5014105;28;20575;-68
2023/09/13 07:27:01;;;;;;;12.60;3.22;;;15.00;99.90;;;;;;5054388;22;20053;-70
2023/09/13 07:29:27;;;;;;;10.05;3.03;;;15.10;99.90;;;;;;5013133;28;20531;-72
2023/09/13 07:31:53;;;;;;;13.00;3.63;;;15.10;99.90;;;;;;5031820;28;20033;-72
2023/09/13 07:34:19;;;;;;;11.20;3.13;;;15.10;99.90;;;;;;5031690;28;20176;-73
2023/09/13 07:36:44;;;;;;;10.30;2.70;;;15.20;99.90;;;;;;5031521;28;20054;-73
2023/09/13 07:39:10;;;;;;;8.77;2.97;;;15.10;99.90;;;;;;5031294;28;20041;-72
2023/09/13 07:41:36;;;;;;;6.25;2.50;;;15.10;99.90;;;;;;5031148;28;20120;-72
2023/09/13 07:44:01;;;;;;;7.85;2.92;;;15.20;99.90;;;;;;5031047;28;20404;-72
2023/09/13 07:46:27;;;;;;;14.13;3.55;;;15.10;99.90;;;;;;5031487;28;20167;-72
2023/09/13 07:48:52;;;;;;;6.55;2.60;;;15.20;99.90;;;;;;5013613;28;20067;-73
2023/09/13 07:51:18;;;;;;;7.15;2.65;;;15.10;99.90;;;;;;5014351;28;20040;-72
2023/09/13 07:53:44;;;;;;;9.80;2.28;;;15.10;99.90;;;;;;5031689;28;20116;-73
2023/09/13 07:56:10;;;;;;;8.10;2.30;;;15.20;99.90;;;;;;5013726;28;20467;-73
2023/09/13 07:58:35;;;;;;;8.00;3.00;;;15.20;99.90;;;;;;5013367;28;20055;-76
2023/09/13 08:01:02;;;;;;;6.10;2.30;;;15.30;99.90;;;;;;5013732;28;20124;-76
2023/09/13 08:03:27;;;;;;;5.65;2.38;;;15.30;99.90;;;;;;5013695;28;20540;-75
2023/09/13 08:05:53;;;;;;;5.85;2.25;;;15.40;99.90;;;;;;5031134;28;20120;-76
2023/09/13 08:08:25;;;;;;;6.47;2.35;;;15.40;99.90;;;;;;5012962;28;20069;-76
2023/09/13 08:10:52;;;;;;;6.78;2.45;;;15.40;99.90;;;;;;5013882;28;20045;-76
2023/09/13 08:13:21;;;;;;;6.18;2.03;;;15.50;99.90;;;;;;5013738;28;20542;-76
2023/09/13 08:15:47;;;;;;;8.20;2.65;;;15.50;99.90;;;;;;5031326;28;20092;-76
2023/09/13 08:18:12;;;;;;;6.57;2.92;;;15.60;99.90;;;;;;5013276;28;20045;-76
2023/09/13 08:20:38;;;;;;;11.00;3.92;;;15.70;99.90;;;;;;5014942;28;20042;-76
2023/09/13 08:23:04;;;;;;;12.63;4.47;;;15.70;99.90;;;;;;5035058;28;20408;-75
2023/09/13 08:25:29;;;;;;;8.68;2.90;;;15.70;99.90;;;;;;5017272;28;20095;-76
2023/09/13 08:27:55;;;;;;;9.95;2.38;;;15.70;99.90;;;;;;5016977;28;20038;-75
2023/09/13 08:30:20;;;;;;;11.40;2.53;;;15.70;99.90;;;;;;5016949;28;20047;-76
2023/09/13 08:32:46;;;;;;;10.93;2.33;;;15.70;99.90;;;;;;5017092;28;20045;-76
2023/09/13 08:35:11;;;;;;;10.05;2.47;;;15.80;99.90;;;;;;5017186;28;20049;-75
2023/09/13 08:37:37;;;;;;;8.65;2.60;;;15.90;99.90;;;;;;5016789;28;20037;-77
2023/09/13 08:40:04;;;;;;;6.20;2.67;;;16.00;99.90;;;;;;5034438;28;20068;-76
2023/09/13 08:42:30;;;;;;;8.85;2.30;;;16.10;99.90;;;;;;5016884;28;20052;-77
2023/09/13 08:44:57;;;;;;;10.00;3.15;;;16.20;99.90;;;;;;5016869;28;20048;-77
2023/09/13 08:47:28;;;;;;;6.60;2.63;;;16.30;99.90;;;;;;5017026;28;20484;-77
2023/09/13 08:49:57;;;;;;;9.68;2.88;;;16.50;99.90;;;;;;5034204;28;20092;-76
2023/09/13 08:52:24;;;;;;;7.70;2.15;;;16.40;99.90;;;;;;5016117;28;20041;-76
2023/09/13 08:54:50;;;;;;;5.50;1.80;;;16.50;99.90;;;;;;5016410;28;20053;-76
2023/09/13 08:57:17;;;;;;;7.75;2.45;;;16.60;99.90;;;;;;5015890;28;20109;-76
2023/09/13 08:59:43;;;;;;;8.18;2.38;;;16.60;99.90;;;;;;5033265;28;20045;-75
2023/09/13 09:02:17;;;;;;;6.20;2.20;;;16.60;99.90;;;;;;5033533;28;20425;-75
2023/09/13 09:04:43;;;;;;;16.17;3.10;;;16.60;99.90;;;;;;5033720;28;20488;-76
2023/09/13 09:07:09;;;;;;;6.90;2.28;;;16.60;99.90;;;;;;5013210;28;20034;-75
2023/09/13 09:09:36;;;;;;;8.82;2.05;;;16.60;99.90;;;;;;5015609;28;20029;-75
2023/09/13 09:12:03;;;;;;;15.23;2.65;;;16.60;99.90;;;;;;5016138;28;20042;-75
2023/09/13 09:14:32;;;;;;;8.73;2.53;;;16.70;99.90;;;;;;5031307;28;20044;-76
2023/09/13 09:17:00;;;;;;;11.88;2.85;;;16.60;99.90;;;;;;5016083;28;20044;-77
2023/09/13 09:19:26;;;;;;;5.65;2.22;;;16.70;99.90;;;;;;5015958;28;20041;-77
2023/09/13 09:21:52;;;;;;;9.23;2.33;;;16.80;99.90;;;;;;5015966;28;20456;-77
2023/09/13 09:24:18;;;;;;;8.07;2.50;;;16.70;99.90;;;;;;5016279;28;20044;-77
2023/09/13 09:26:46;;;;;;;6.32;2.20;;;16.60;99.90;;;;;;5033544;28;20041;-76
2023/09/13 09:29:12;;;;;;;7.07;2.42;;;16.50;99.90;;;;;;5015630;28;20037;-76
2023/09/13 09:31:39;;;;;;;11.77;3.67;;;16.30;99.90;;;;;;5015405;28;20049;-77
2023/09/13 09:34:05;;;;;;;6.88;3.00;;;16.20;99.90;;;;;;5033950;28;20045;-77
2023/09/13 09:36:38;;;;;;;9.45;2.33;;;16.20;99.90;;;;;;5016020;28;20052;-77
2023/09/13 09:39:04;;;;;;;8.05;2.20;;;16.10;99.90;;;;;;5015356;28;20107;-77
2023/09/13 09:41:35;;;;;;;10.05;2.67;;;16.10;99.90;;;;;;5015166;28;20065;-77
2023/09/13 09:44:02;;;;;;;18.00;3.70;;;16.10;99.90;;;;;;5033162;28;20033;-77
2023/09/13 09:46:27;;;;;;;9.13;2.53;;;16.20;99.90;;;;;;5032990;28;20034;-77
2023/09/13 09:48:54;;;;;;;5.47;2.05;;;16.20;99.90;;;;;;5015472;28;20049;-77
2023/09/13 09:51:20;;;;;;;9.18;2.42;;;16.20;99.90;;;;;;5033609;28;20041;-77
2023/09/13 09:53:47;;;;;;;11.57;4.43;;;16.30;99.90;;;;;;5015765;28;20049;-77
2023/09/13 09:56:12;;;;;;;8.05;2.47;;;16.20;99.90;;;;;;5015633;28;20520;-77
2023/09/13 09:58:38;;;;;;;8.45;2.50;;;16.20;99.90;;;;;;5033110;28;20108;-77
2023/09/13 10:01:04;;;;;;;10.10;2.92;;;16.20;99.90;;;;;;5015462;28;20567;-77
2023/09/13 10:03:34;;;;;;;7.60;2.30;;;16.30;99.90;;;;;;5015431;28;20124;-77
2023/09/13 10:06:06;;;;;;;10.57;2.47;;;16.30;99.90;;;;;;5015359;28;20037;-77
2023/09/13 10:08:36;;;;;;;6.88;3.10;;;16.30;99.90;;;;;;5014941;28;20506;-76
2023/09/13 10:11:02;;;;;;;6.65;2.22;;;16.20;99.90;;;;;;5015348;28;20053;-75
2023/09/13 10:13:31;;;;;;;9.65;2.30;;;16.40;99.90;;;;;;5015431;28;20044;-75
2023/09/13 10:15:57;;;;;;;4.90;2.30;;;16.40;99.90;;;;;;5015169;28;20060;-74
2023/09/13 10:18:25;;;;;;;6.43;2.20;;;16.40;99.90;;;;;;5014763;28;20041;-74
2023/09/13 10:20:57;;;;;;;8.82;2.88;;;16.40;99.90;;;;;;5014962;28;20095;-74
2023/09/13 10:23:28;;;;;;;5.85;2.03;;;16.40;99.90;;;;;;5014776;28;20500;-74
2023/09/13 10:25:57;;;;;;;8.18;2.47;;;16.50;99.90;;;;;;5012173;28;20038;-74
2023/09/13 10:28:26;;;;;;;10.02;2.00;;;16.50;99.90;;;;;;5014435;28;20476;-74
2023/09/13 10:30:57;;;;;;;13.90;2.70;;;16.60;99.90;;;;;;5014621;28;20045;-74
2023/09/13 10:33:23;;;;;;;6.97;2.50;;;16.80;99.90;;;;;;5014683;28;20175;-74
2023/09/13 10:35:54;;;;;;;4.60;1.85;;;16.90;99.90;;;;;;5014612;28;20117;-74
2023/09/13 10:38:24;;;;;;;6.05;2.20;;;16.90;99.90;;;;;;5014621;28;20444;-74
2023/09/13 10:41:02;;;;;;;8.43;2.80;;;16.90;99.90;;;;;;5014793;28;20033;-74
2023/09/13 10:43:29;;;;;;;7.75;2.38;;;16.90;99.90;;;;;;5013631;28;20179;-73
2023/09/13 10:45:56;;;;;;;6.43;2.17;;;16.90;99.90;;;;;;5014344;28;20505;-74
2023/09/13 10:48:22;;;;;;;6.72;1.73;;;17.10;99.90;;;;;;5013996;28;20119;-74
2023/09/13 10:50:49;;;;;;;9.15;2.17;;;17.20;99.90;;;;;;5032327;28;20039;-73
2023/09/13 10:53:16;;;;;;;5.60;2.50;;;17.30;99.90;;;;;;4998237;28;20060;-73
2023/09/13 10:55:42;;;;;;;7.13;3.38;;;17.20;99.90;;;;;;5014479;28;20053;-73
2023/09/13 10:58:09;;;;;;;6.90;2.05;;;17.30;99.90;;;;;;5014052;28;20659;-73
2023/09/13 11:00:36;;;;;;;5.50;2.15;;;17.30;99.90;;;;;;5013929;28;20077;-74
2023/09/13 11:03:04;;;;;;;2.95;1.88;;;17.50;99.90;;;;;;5031829;28;20546;-73
2023/09/13 11:05:33;;;;;;;7.93;1.98;;;17.60;99.90;;;;;;5032046;28;20049;-73
2023/09/13 11:07:59;;;;;;;4.90;1.70;;;17.70;99.90;;;;;;5031471;28;20488;-73
2023/09/13 11:10:31;;;;;;;6.80;1.88;;;17.70;99.90;;;;;;5031263;28;20038;-73
2023/09/13 11:13:12;;;;;;;4.93;1.50;;;17.70;99.90;;;;;;5031371;28;20044;-73
2023/09/13 11:15:53;;;;;;;3.72;1.85;;;17.70;99.90;;;;;;5031220;28;20099;-73
2023/09/13 11:18:18;;;;;;;5.60;1.85;;;17.60;99.90;;;;;;5031204;28;20124;-74
2023/09/13 11:20:44;;;;;;;4.32;2.03;;;17.80;99.90;;;;;;5031220;28;20121;-73
2023/09/13 11:23:11;;;;;;;7.38;1.80;;;17.90;99.90;;;;;;5031256;28;20087;-73
2023/09/13 11:25:48;;;;;;;8.35;1.80;;;17.80;99.90;;;;;;5031058;28;20096;-73
2023/09/13 11:28:38;;;;;;;11.52;2.38;;;17.80;99.90;;;;;;5031177;28;20033;-74
2023/09/13 11:31:05;;;;;;;6.30;1.85;;;18.00;99.90;;;;;;5013955;28;20077;-73
2023/09/13 11:33:38;;;;;;;5.63;2.20;;;17.90;99.90;;;;;;5031756;28;20052;-73
2023/09/13 11:36:04;;;;;;;4.60;1.42;;;17.90;99.90;;;;;;5031652;28;20046;-74
2023/09/13 11:38:30;;;;;;;2.95;1.20;;;18.10;99.90;;;;;;5031048;28;20045;-73
2023/09/13 11:40:58;;;;;;;5.90;1.70;;;18.20;99.90;;;;;;5031734;28;20141;-73
2023/09/13 11:43:25;;;;;;;6.97;2.55;;;18.20;99.90;;;;;;5031708;28;20042;-73
2023/09/13 11:45:55;;;;;;;2.60;1.35;;;18.20;99.90;;;;;;5031535;28;20030;-73
2023/09/13 11:48:39;;;;;;;3.97;1.58;;;18.30;99.90;;;;;;5030820;28;20460;-73
2023/09/13 11:51:13;;;;;;;5.30;1.52;;;18.10;99.90;;;;;;5013726;28;20049;-74
2023/09/13 11:53:40;;;;;;;4.60;1.23;;;18.10;99.90;;;;;;5013973;28;20045;-74
2023/09/13 11:56:07;;;;;;;3.50;1.17;;;18.10;99.90;;;;;;5016734;28;20052;-75
2023/09/13 11:58:34;;;;;;;2.83;1.00;;;18.10;99.90;;;;;;5001065;28;20045;-74
2023/09/13 12:01:03;;;;;;;6.30;1.70;;;18.30;99.90;;;;;;5017984;28;20550;-74
2023/09/13 12:03:30;;;;;;;7.43;1.70;;;18.40;99.90;;;;;;5015094;28;20049;-74
2023/09/13 12:05:57;;;;;;;4.50;1.80;;;18.50;99.90;;;;;;5035555;28;20171;-75
2023/09/13 12:08:25;;;;;;;5.25;1.67;;;18.60;99.90;;;;;;5017438;28;20052;-75
2023/09/13 12:10:51;;;;;;;10.02;1.73;;;18.50;99.90;;;;;;5017424;28;20045;-74
2023/09/13 12:13:17;;;;;;;9.02;1.50;;;18.40;99.90;;;;;;5016867;28;20045;-75
2023/09/13 12:16:02;;;;;;;9.48;2.15;;;18.20;99.90;;;;;;5017568;28;20073;-75
2023/09/13 12:18:30;;;;;;;7.97;1.33;;;18.20;99.90;;;;;;5016782;28;20056;-75
2023/09/13 12:20:58;;;;;;;10.30;2.95;;;18.40;99.90;;;;;;5017216;28;20045;-74
2023/09/13 12:23:27;;;;;;;6.22;1.85;;;18.30;99.90;;;;;;5035093;28;20048;-75
2023/09/13 12:25:58;;;;;;;6.47;1.48;;;18.40;99.90;;;;;;5017241;28;20493;-75
2023/09/13 12:28:26;;;;;;;4.55;1.13;;;18.30;99.90;;;;;;5016677;28;20045;-75
2023/09/13 12:30:52;;;;;;;5.10;2.35;;;18.30;99.90;;;;;;5034400;28;20037;-75
2023/09/13 12:33:18;;;;;;;10.32;2.10;;;18.10;99.90;;;;;;5016890;28;20037;-75
2023/09/13 12:35:44;;;;;;;5.93;1.70;;;18.00;99.90;;;;;;5016465;28;20515;-76
2023/09/13 12:38:10;;;;;;;8.40;1.27;;;17.80;99.90;;;;;;5016734;28;20045;-75
2023/09/13 12:40:36;;;;;;;5.35;2.13;;;17.80;99.90;;;;;;5013846;28;20451;-75
2023/09/13 12:43:01;;;;;;;5.30;1.77;;;17.70;99.90;;;;;;5016398;28;20041;-76